sensor_id;sensor_type;location;lat;lon;timestamp;P1;durP1;ratioP1;P2;durP2;ratioP2
33501;SDS011;22396;51.070;4.974;2023-08-08T00:00:12;8.75;;;1.80;;
33501;SDS011;22396;51.070;4.974;2023-08-08T00:02:41;6.25;;;1.90;;
33501;SDS011;22396;51.070;4.974;2023-08-08T00:05:06;5.82;;;2.08;;
33501;SDS011;22396;51.070;4.974;2023-08-08T00:07:32;3.47;;;1.90;;
33501;SDS011;22396;51.070;4.974;2023-08-08T00:09:57;3.25;;;2.15;;
33501;SDS011;22396;51.070;4.974;2023-08-08T00:12:23;5.35;;;1.80;;
33501;SDS011;22396;51.070;4.974;2023-08-08T00:14:48;7.63;;;1.80;;
33501;SDS011;22396;51.070;4.974;2023-08-08T00:17:14;3.83;;;1.50;;
33501;SDS011;22396;51.070;4.974;2023-08-08T00:19:39;6.15;;;1.50;;
33501;SDS011;22396;51.070;4.974;2023-08-08T00:22:05;6.75;;;1.67;;
33501;SDS011;22396;51.070;4.974;2023-08-08T00:24:31;3.83;;;1.70;;
33501;SDS011;22396;51.070;4.974;2023-08-08T00:26:56;7.53;;;1.60;;
33501;SDS011;22396;51.070;4.974;2023-08-08T00:29:21;9.13;;;1.83;;
33501;SDS011;22396;51.070;4.974;2023-08-08T00:31:47;3.90;;;1.40;;
33501;SDS011;22396;51.070;4.974;2023-08-08T00:34:14;3.08;;;1.40;;
33501;SDS011;22396;51.070;4.974;2023-08-08T00:36:40;5.22;;;1.80;;
33501;SDS011;22396;51.070;4.974;2023-08-08T00:39:05;5.53;;;1.30;;
33501;SDS011;22396;51.070;4.974;2023-08-08T00:41:31;4.95;;;1.90;;
33501;SDS011;22396;51.070;4.974;2023-08-08T00:43:59;3.28;;;1.50;;
33501;SDS011;22396;51.070;4.974;2023-08-08T00:46:24;3.38;;;1.63;;
33501;SDS011;22396;51.070;4.974;2023-08-08T00:48:51;3.10;;;1.50;;
33501;SDS011;22396;51.070;4.974;2023-08-08T00:51:17;5.50;;;1.55;;
33501;SDS011;22396;51.070;4.974;2023-08-08T00:53:44;7.03;;;1.80;;
33501;SDS011;22396;51.070;4.974;2023-08-08T00:56:09;6.82;;;1.90;;
33501;SDS011;22396;51.070;4.974;2023-08-08T00:58:37;13.05;;;1.90;;
33501;SDS011;22396;51.070;4.974;2023-08-08T01:01:03;5.00;;;1.42;;
33501;SDS011;22396;51.070;4.974;2023-08-08T01:03:28;9.88;;;1.58;;
33501;SDS011;22396;51.070;4.974;2023-08-08T01:05:59;7.80;;;1.92;;
33501;SDS011;22396;51.070;4.974;2023-08-08T01:08:27;6.75;;;1.70;;
33501;SDS011;22396;51.070;4.974;2023-08-08T01:10:58;4.00;;;1.30;;
33501;SDS011;22396;51.070;4.974;2023-08-08T01:13:24;4.35;;;1.55;;
33501;SDS011;22396;51.070;4.974;2023-08-08T01:15:53;4.55;;;1.48;;
33501;SDS011;22396;51.070;4.974;2023-08-08T01:18:19;7.47;;;1.60;;
33501;SDS011;22396;51.070;4.974;2023-08-08T01:20:44;4.50;;;1.80;;
33501;SDS011;22396;51.070;4.974;2023-08-08T01:25:51;7.47;;;1.95;;
33501;SDS011;22396;51.070;4.974;2023-08-08T01:28:23;5.45;;;1.85;;
33501;SDS011;22396;51.070;4.974;2023-08-08T01:30:51;10.35;;;1.88;;
33501;SDS011;22396;51.070;4.974;2023-08-08T01:33:19;5.00;;;1.92;;
33501;SDS011;22396;51.070;4.974;2023-08-08T01:35:46;5.00;;;1.67;;
33501;SDS011;22396;51.070;4.974;2023-08-08T01:40:56;6.90;;;1.50;;
33501;SDS011;22396;51.070;4.974;2023-08-08T01:43:22;5.85;;;1.60;;
33501;SDS011;22396;51.070;4.974;2023-08-08T01:45:48;9.57;;;1.88;;
33501;SDS011;22396;51.070;4.974;2023-08-08T01:48:14;7.28;;;1.95;;
33501;SDS011;22396;51.070;4.974;2023-08-08T01:50:40;11.80;;;1.70;;
33501;SDS011;22396;51.070;4.974;2023-08-08T01:53:05;3.65;;;1.50;;
33501;SDS011;22396;51.070;4.974;2023-08-08T01:55:30;7.35;;;1.95;;
33501;SDS011;22396;51.070;4.974;2023-08-08T01:57:56;7.20;;;1.63;;
33501;SDS011;22396;51.070;4.974;2023-08-08T02:00:21;6.10;;;1.98;;
33501;SDS011;22396;51.070;4.974;2023-08-08T02:02:47;6.38;;;2.08;;
33501;SDS011;22396;51.070;4.974;2023-08-08T02:05:13;8.63;;;1.88;;
33501;SDS011;22396;51.070;4.974;2023-08-08T02:07:39;7.30;;;1.50;;
33501;SDS011;22396;51.070;4.974;2023-08-08T02:10:10;6.10;;;1.77;;
33501;SDS011;22396;51.070;4.974;2023-08-08T02:12:36;4.28;;;1.73;;
33501;SDS011;22396;51.070;4.974;2023-08-08T02:15:02;6.32;;;1.98;;
33501;SDS011;22396;51.070;4.974;2023-08-08T02:17:33;9.25;;;2.25;;
33501;SDS011;22396;51.070;4.974;2023-08-08T02:20:00;8.35;;;1.60;;
33501;SDS011;22396;51.070;4.974;2023-08-08T02:22:27;3.97;;;1.50;;
33501;SDS011;22396;51.070;4.974;2023-08-08T02:24:52;7.10;;;2.40;;
33501;SDS011;22396;51.070;4.974;2023-08-08T02:27:18;4.90;;;1.80;;
33501;SDS011;22396;51.070;4.974;2023-08-08T02:29:46;11.63;;;1.80;;
33501;SDS011;22396;51.070;4.974;2023-08-08T02:32:11;5.47;;;1.70;;
33501;SDS011;22396;51.070;4.974;2023-08-08T02:34:41;6.07;;;2.00;;
33501;SDS011;22396;51.070;4.974;2023-08-08T02:37:10;3.95;;;1.77;;
33501;SDS011;22396;51.070;4.974;2023-08-08T02:39:35;7.88;;;1.77;;
33501;SDS011;22396;51.070;4.974;2023-08-08T02:42:00;6.30;;;1.77;;
33501;SDS011;22396;51.070;4.974;2023-08-08T02:44:26;5.03;;;1.60;;
33501;SDS011;22396;51.070;4.974;2023-08-08T02:46:51;7.38;;;2.20;;
33501;SDS011;22396;51.070;4.974;2023-08-08T02:49:16;7.10;;;2.15;;
33501;SDS011;22396;51.070;4.974;2023-08-08T02:51:42;7.30;;;2.30;;
33501;SDS011;22396;51.070;4.974;2023-08-08T02:54:07;7.95;;;2.50;;
33501;SDS011;22396;51.070;4.974;2023-08-08T02:56:32;9.98;;;2.33;;
33501;SDS011;22396;51.070;4.974;2023-08-08T02:58:58;7.00;;;2.30;;
33501;SDS011;22396;51.070;4.974;2023-08-08T03:01:23;8.30;;;1.90;;
33501;SDS011;22396;51.070;4.974;2023-08-08T03:03:48;6.72;;;1.80;;
33501;SDS011;22396;51.070;4.974;2023-08-08T03:06:14;8.25;;;2.05;;
33501;SDS011;22396;51.070;4.974;2023-08-08T03:08:39;7.40;;;2.08;;
33501;SDS011;22396;51.070;4.974;2023-08-08T03:11:07;9.45;;;2.13;;
33501;SDS011;22396;51.070;4.974;2023-08-08T03:13:35;10.40;;;2.55;;
33501;SDS011;22396;51.070;4.974;2023-08-08T03:16:03;8.48;;;2.17;;
33501;SDS011;22396;51.070;4.974;2023-08-08T03:18:28;11.13;;;2.63;;
33501;SDS011;22396;51.070;4.974;2023-08-08T03:20:54;8.73;;;2.47;;
33501;SDS011;22396;51.070;4.974;2023-08-08T03:23:19;7.03;;;2.42;;
33501;SDS011;22396;51.070;4.974;2023-08-08T03:25:45;9.63;;;2.42;;
33501;SDS011;22396;51.070;4.974;2023-08-08T03:28:10;6.75;;;2.35;;
33501;SDS011;22396;51.070;4.974;2023-08-08T03:30:36;7.72;;;2.55;;
33501;SDS011;22396;51.070;4.974;2023-08-08T03:33:03;12.13;;;2.97;;
33501;SDS011;22396;51.070;4.974;2023-08-08T03:35:28;13.27;;;2.30;;
33501;SDS011;22396;51.070;4.974;2023-08-08T03:37:54;8.32;;;2.88;;
33501;SDS011;22396;51.070;4.974;2023-08-08T03:40:20;7.95;;;2.47;;
33501;SDS011;22396;51.070;4.974;2023-08-08T03:42:45;10.60;;;2.38;;
33501;SDS011;22396;51.070;4.974;2023-08-08T03:45:11;12.10;;;2.22;;
33501;SDS011;22396;51.070;4.974;2023-08-08T03:47:36;10.63;;;2.47;;
33501;SDS011;22396;51.070;4.974;2023-08-08T03:50:01;6.00;;;2.63;;
33501;SDS011;22396;51.070;4.974;2023-08-08T03:52:28;10.88;;;2.58;;
33501;SDS011;22396;51.070;4.974;2023-08-08T03:54:55;8.80;;;2.13;;
33501;SDS011;22396;51.070;4.974;2023-08-08T03:57:21;6.57;;;1.98;;
33501;SDS011;22396;51.070;4.974;2023-08-08T03:59:46;12.10;;;2.75;;
33501;SDS011;22396;51.070;4.974;2023-08-08T04:02:12;6.50;;;2.30;;
33501;SDS011;22396;51.070;4.974;2023-08-08T04:04:37;4.57;;;2.30;;
33501;SDS011;22396;51.070;4.974;2023-08-08T04:07:03;7.68;;;2.25;;
33501;SDS011;22396;51.070;4.974;2023-08-08T04:09:29;13.30;;;2.28;;
33501;SDS011;22396;51.070;4.974;2023-08-08T04:11:54;6.70;;;2.00;;
33501;SDS011;22396;51.070;4.974;2023-08-08T04:14:20;14.98;;;3.28;;
33501;SDS011;22396;51.070;4.974;2023-08-08T04:16:45;8.98;;;2.58;;
33501;SDS011;22396;51.070;4.974;2023-08-08T04:19:10;6.88;;;2.10;;
33501;SDS011;22396;51.070;4.974;2023-08-08T04:21:35;8.38;;;2.50;;
33501;SDS011;22396;51.070;4.974;2023-08-08T04:24:01;11.30;;;2.47;;
33501;SDS011;22396;51.070;4.974;2023-08-08T04:26:27;7.10;;;2.30;;
33501;SDS011;22396;51.070;4.974;2023-08-08T04:28:52;6.55;;;2.30;;
33501;SDS011;22396;51.070;4.974;2023-08-08T04:31:18;11.77;;;2.58;;
33501;SDS011;22396;51.070;4.974;2023-08-08T04:33:43;7.32;;;2.20;;
33501;SDS011;22396;51.070;4.974;2023-08-08T04:36:09;8.40;;;2.50;;
33501;SDS011;22396;51.070;4.974;2023-08-08T04:38:34;12.65;;;2.53;;
33501;SDS011;22396;51.070;4.974;2023-08-08T04:41:00;9.55;;;2.63;;
33501;SDS011;22396;51.070;4.974;2023-08-08T04:43:25;10.65;;;3.10;;
33501;SDS011;22396;51.070;4.974;2023-08-08T04:45:53;10.95;;;3.70;;
33501;SDS011;22396;51.070;4.974;2023-08-08T04:48:21;8.43;;;3.05;;
33501;SDS011;22396;51.070;4.974;2023-08-08T04:50:47;9.55;;;2.70;;
33501;SDS011;22396;51.070;4.974;2023-08-08T04:53:12;8.65;;;2.33;;
33501;SDS011;22396;51.070;4.974;2023-08-08T04:55:38;7.63;;;2.63;;
33501;SDS011;22396;51.070;4.974;2023-08-08T04:58:06;10.35;;;3.00;;
33501;SDS011;22396;51.070;4.974;2023-08-08T05:00:32;10.45;;;2.67;;
33501;SDS011;22396;51.070;4.974;2023-08-08T05:02:57;13.57;;;3.47;;
33501;SDS011;22396;51.070;4.974;2023-08-08T05:05:22;11.55;;;2.53;;
33501;SDS011;22396;51.070;4.974;2023-08-08T05:07:48;9.32;;;2.30;;
33501;SDS011;22396;51.070;4.974;2023-08-08T05:10:13;10.50;;;2.50;;
33501;SDS011;22396;51.070;4.974;2023-08-08T05:12:38;8.43;;;2.55;;
33501;SDS011;22396;51.070;4.974;2023-08-08T05:15:04;10.02;;;2.28;;
33501;SDS011;22396;51.070;4.974;2023-08-08T05:17:30;8.15;;;2.42;;
33501;SDS011;22396;51.070;4.974;2023-08-08T05:19:56;17.38;;;2.70;;
33501;SDS011;22396;51.070;4.974;2023-08-08T05:22:21;8.77;;;2.60;;
33501;SDS011;22396;51.070;4.974;2023-08-08T05:24:47;12.13;;;2.60;;
33501;SDS011;22396;51.070;4.974;2023-08-08T05:27:12;10.05;;;2.50;;
33501;SDS011;22396;51.070;4.974;2023-08-08T05:29:37;8.48;;;2.38;;
33501;SDS011;22396;51.070;4.974;2023-08-08T05:32:04;8.70;;;2.47;;
33501;SDS011;22396;51.070;4.974;2023-08-08T05:34:32;9.98;;;2.53;;
33501;SDS011;22396;51.070;4.974;2023-08-08T05:36:57;7.97;;;3.10;;
33501;SDS011;22396;51.070;4.974;2023-08-08T05:39:22;7.00;;;2.60;;
33501;SDS011;22396;51.070;4.974;2023-08-08T05:41:48;10.25;;;2.78;;
33501;SDS011;22396;51.070;4.974;2023-08-08T05:44:15;12.13;;;2.55;;
33501;SDS011;22396;51.070;4.974;2023-08-08T05:46:41;11.05;;;2.72;;
33501;SDS011;22396;51.070;4.974;2023-08-08T05:49:06;11.13;;;2.70;;
33501;SDS011;22396;51.070;4.974;2023-08-08T05:51:34;14.40;;;2.42;;
33501;SDS011;22396;51.070;4.974;2023-08-08T05:53:59;10.52;;;2.72;;
33501;SDS011;22396;51.070;4.974;2023-08-08T05:56:24;5.65;;;2.60;;
33501;SDS011;22396;51.070;4.974;2023-08-08T05:58:50;11.40;;;3.08;;
33501;SDS011;22396;51.070;4.974;2023-08-08T06:01:15;8.27;;;2.50;;
33501;SDS011;22396;51.070;4.974;2023-08-08T06:03:40;9.25;;;2.72;;
33501;SDS011;22396;51.070;4.974;2023-08-08T06:06:07;10.05;;;2.40;;
33501;SDS011;22396;51.070;4.974;2023-08-08T06:08:32;14.13;;;2.88;;
33501;SDS011;22396;51.070;4.974;2023-08-08T06:10:58;17.52;;;3.28;;
33501;SDS011;22396;51.070;4.974;2023-08-08T06:13:23;11.00;;;2.70;;
33501;SDS011;22396;51.070;4.974;2023-08-08T06:15:51;8.63;;;2.35;;
33501;SDS011;22396;51.070;4.974;2023-08-08T06:18:17;9.82;;;3.15;;
33501;SDS011;22396;51.070;4.974;2023-08-08T06:20:42;10.45;;;3.03;;
33501;SDS011;22396;51.070;4.974;2023-08-08T06:23:08;10.40;;;2.80;;
33501;SDS011;22396;51.070;4.974;2023-08-08T06:25:33;10.25;;;2.65;;
33501;SDS011;22396;51.070;4.974;2023-08-08T06:27:58;10.85;;;3.10;;
33501;SDS011;22396;51.070;4.974;2023-08-08T06:30:24;20.65;;;3.38;;
33501;SDS011;22396;51.070;4.974;2023-08-08T06:32:49;14.50;;;2.90;;
33501;SDS011;22396;51.070;4.974;2023-08-08T06:35:14;7.60;;;2.63;;
33501;SDS011;22396;51.070;4.974;2023-08-08T06:37:41;10.38;;;3.25;;
33501;SDS011;22396;51.070;4.974;2023-08-08T06:40:09;9.52;;;2.50;;
33501;SDS011;22396;51.070;4.974;2023-08-08T06:42:35;8.07;;;2.17;;
33501;SDS011;22396;51.070;4.974;2023-08-08T06:45:01;6.40;;;2.38;;
33501;SDS011;22396;51.070;4.974;2023-08-08T06:47:26;9.57;;;2.75;;
33501;SDS011;22396;51.070;4.974;2023-08-08T06:49:51;9.15;;;2.78;;
33501;SDS011;22396;51.070;4.974;2023-08-08T06:52:17;12.73;;;2.40;;
33501;SDS011;22396;51.070;4.974;2023-08-08T06:54:42;10.50;;;2.28;;
33501;SDS011;22396;51.070;4.974;2023-08-08T06:57:07;9.15;;;2.50;;
33501;SDS011;22396;51.070;4.974;2023-08-08T06:59:33;7.32;;;2.92;;
33501;SDS011;22396;51.070;4.974;2023-08-08T07:01:58;5.90;;;2.40;;
33501;SDS011;22396;51.070;4.974;2023-08-08T07:04:26;13.88;;;3.10;;
33501;SDS011;22396;51.070;4.974;2023-08-08T07:06:54;8.75;;;2.30;;
33501;SDS011;22396;51.070;4.974;2023-08-08T07:09:22;8.50;;;2.35;;
33501;SDS011;22396;51.070;4.974;2023-08-08T07:11:47;9.93;;;2.13;;
33501;SDS011;22396;51.070;4.974;2023-08-08T07:14:12;13.50;;;2.63;;
33501;SDS011;22396;51.070;4.974;2023-08-08T07:16:38;10.05;;;2.33;;
33501;SDS011;22396;51.070;4.974;2023-08-08T07:19:03;5.35;;;2.47;;
33501;SDS011;22396;51.070;4.974;2023-08-08T07:21:28;9.65;;;2.42;;
33501;SDS011;22396;51.070;4.974;2023-08-08T07:23:57;7.13;;;2.70;;
33501;SDS011;22396;51.070;4.974;2023-08-08T07:26:22;11.75;;;2.83;;
33501;SDS011;22396;51.070;4.974;2023-08-08T07:28:48;15.85;;;2.45;;
33501;SDS011;22396;51.070;4.974;2023-08-08T07:31:13;10.32;;;2.67;;
33501;SDS011;22396;51.070;4.974;2023-08-08T07:33:41;9.50;;;3.10;;
33501;SDS011;22396;51.070;4.974;2023-08-08T07:36:07;9.90;;;2.60;;
33501;SDS011;22396;51.070;4.974;2023-08-08T07:38:32;15.43;;;2.60;;
33501;SDS011;22396;51.070;4.974;2023-08-08T07:40:58;11.05;;;2.47;;
33501;SDS011;22396;51.070;4.974;2023-08-08T07:43:23;15.80;;;2.72;;
33501;SDS011;22396;51.070;4.974;2023-08-08T07:45:48;10.07;;;2.08;;
33501;SDS011;22396;51.070;4.974;2023-08-08T07:48:14;6.57;;;2.15;;
33501;SDS011;22396;51.070;4.974;2023-08-08T07:50:39;14.20;;;2.70;;
33501;SDS011;22396;51.070;4.974;2023-08-08T07:53:05;7.95;;;2.65;;
33501;SDS011;22396;51.070;4.974;2023-08-08T07:55:30;8.45;;;2.08;;
33501;SDS011;22396;51.070;4.974;2023-08-08T07:57:55;7.45;;;2.40;;
33501;SDS011;22396;51.070;4.974;2023-08-08T08:00:20;8.55;;;2.08;;
33501;SDS011;22396;51.070;4.974;2023-08-08T08:02:46;6.78;;;2.38;;
33501;SDS011;22396;51.070;4.974;2023-08-08T08:05:12;8.90;;;2.58;;
33501;SDS011;22396;51.070;4.974;2023-08-08T08:07:38;11.68;;;2.67;;
33501;SDS011;22396;51.070;4.974;2023-08-08T08:10:05;10.18;;;2.33;;
33501;SDS011;22396;51.070;4.974;2023-08-08T08:12:34;7.85;;;2.58;;
33501;SDS011;22396;51.070;4.974;2023-08-08T08:14:59;9.63;;;2.72;;
33501;SDS011;22396;51.070;4.974;2023-08-08T08:17:26;8.93;;;2.42;;
33501;SDS011;22396;51.070;4.974;2023-08-08T08:19:53;12.68;;;2.85;;
33501;SDS011;22396;51.070;4.974;2023-08-08T08:22:18;8.68;;;2.00;;
33501;SDS011;22396;51.070;4.974;2023-08-08T08:24:44;5.03;;;2.08;;
33501;SDS011;22396;51.070;4.974;2023-08-08T08:27:11;6.72;;;2.50;;
33501;SDS011;22396;51.070;4.974;2023-08-08T08:29:36;7.43;;;2.03;;
33501;SDS011;22396;51.070;4.974;2023-08-08T08:32:04;13.65;;;2.50;;
33501;SDS011;22396;51.070;4.974;2023-08-08T08:34:29;7.63;;;1.90;;
33501;SDS011;22396;51.070;4.974;2023-08-08T08:36:55;4.65;;;1.80;;
33501;SDS011;22396;51.070;4.974;2023-08-08T08:39:24;6.03;;;2.00;;
33501;SDS011;22396;51.070;4.974;2023-08-08T08:41:56;11.40;;;2.28;;
33501;SDS011;22396;51.070;4.974;2023-08-08T08:44:23;6.68;;;1.90;;
33501;SDS011;22396;51.070;4.974;2023-08-08T08:46:49;4.78;;;1.75;;
33501;SDS011;22396;51.070;4.974;2023-08-08T08:49:19;11.75;;;2.17;;
33501;SDS011;22396;51.070;4.974;2023-08-08T08:51:47;7.22;;;2.25;;
33501;SDS011;22396;51.070;4.974;2023-08-08T08:54:12;9.05;;;2.45;;
33501;SDS011;22396;51.070;4.974;2023-08-08T08:56:39;7.28;;;2.25;;
33501;SDS011;22396;51.070;4.974;2023-08-08T08:59:05;7.38;;;2.15;;
33501;SDS011;22396;51.070;4.974;2023-08-08T09:01:30;7.85;;;2.33;;
33501;SDS011;22396;51.070;4.974;2023-08-08T09:03:56;9.82;;;2.20;;
33501;SDS011;22396;51.070;4.974;2023-08-08T09:06:24;9.73;;;2.80;;
33501;SDS011;22396;51.070;4.974;2023-08-08T09:08:53;11.45;;;2.20;;
33501;SDS011;22396;51.070;4.974;2023-08-08T09:11:19;9.52;;;1.98;;
33501;SDS011;22396;51.070;4.974;2023-08-08T09:13:44;7.82;;;2.47;;
33501;SDS011;22396;51.070;4.974;2023-08-08T09:16:10;7.35;;;2.65;;
33501;SDS011;22396;51.070;4.974;2023-08-08T09:18:37;6.90;;;2.05;;
33501;SDS011;22396;51.070;4.974;2023-08-08T09:21:03;10.18;;;1.67;;
33501;SDS011;22396;51.070;4.974;2023-08-08T09:23:29;6.00;;;2.15;;
33501;SDS011;22396;51.070;4.974;2023-08-08T09:25:54;7.07;;;2.20;;
33501;SDS011;22396;51.070;4.974;2023-08-08T09:28:19;10.77;;;2.08;;
33501;SDS011;22396;51.070;4.974;2023-08-08T09:30:44;5.65;;;2.08;;
33501;SDS011;22396;51.070;4.974;2023-08-08T09:33:11;7.50;;;2.42;;
33501;SDS011;22396;51.070;4.974;2023-08-08T09:35:39;11.80;;;2.30;;
33501;SDS011;22396;51.070;4.974;2023-08-08T09:38:05;9.80;;;2.33;;
33501;SDS011;22396;51.070;4.974;2023-08-08T09:40:34;11.38;;;2.90;;
33501;SDS011;22396;51.070;4.974;2023-08-08T09:42:59;7.25;;;2.25;;
33501;SDS011;22396;51.070;4.974;2023-08-08T09:45:25;6.60;;;2.55;;
33501;SDS011;22396;51.070;4.974;2023-08-08T09:47:51;8.95;;;3.25;;
33501;SDS011;22396;51.070;4.974;2023-08-08T09:50:17;7.32;;;2.78;;
33501;SDS011;22396;51.070;4.974;2023-08-08T09:52:43;9.07;;;3.20;;
33501;SDS011;22396;51.070;4.974;2023-08-08T09:55:10;11.63;;;4.32;;
33501;SDS011;22396;51.070;4.974;2023-08-08T09:57:37;7.30;;;3.20;;
33501;SDS011;22396;51.070;4.974;2023-08-08T10:00:03;7.57;;;3.50;;
33501;SDS011;22396;51.070;4.974;2023-08-08T10:02:30;8.80;;;3.75;;
33501;SDS011;22396;51.070;4.974;2023-08-08T10:04:57;9.30;;;3.63;;
33501;SDS011;22396;51.070;4.974;2023-08-08T10:07:23;15.07;;;3.67;;
33501;SDS011;22396;51.070;4.974;2023-08-08T10:09:48;15.88;;;4.00;;
33501;SDS011;22396;51.070;4.974;2023-08-08T10:12:14;4.55;;;2.85;;
33501;SDS011;22396;51.070;4.974;2023-08-08T10:14:42;7.97;;;3.25;;
33501;SDS011;22396;51.070;4.974;2023-08-08T10:17:07;4.90;;;2.63;;
33501;SDS011;22396;51.070;4.974;2023-08-08T10:19:35;15.85;;;3.25;;
33501;SDS011;22396;51.070;4.974;2023-08-08T10:22:04;7.57;;;3.55;;
33501;SDS011;22396;51.070;4.974;2023-08-08T10:24:34;10.38;;;2.80;;
33501;SDS011;22396;51.070;4.974;2023-08-08T10:27:00;9.73;;;3.47;;
33501;SDS011;22396;51.070;4.974;2023-08-08T10:29:27;8.63;;;3.88;;
33501;SDS011;22396;51.070;4.974;2023-08-08T10:34:19;5.95;;;2.72;;
33501;SDS011;22396;51.070;4.974;2023-08-08T10:36:49;10.35;;;3.78;;
33501;SDS011;22396;51.070;4.974;2023-08-08T10:39:20;8.13;;;3.08;;
33501;SDS011;22396;51.070;4.974;2023-08-08T10:41:47;12.60;;;3.42;;
33501;SDS011;22396;51.070;4.974;2023-08-08T10:44:12;4.68;;;2.92;;
33501;SDS011;22396;51.070;4.974;2023-08-08T10:46:41;7.38;;;2.67;;
33501;SDS011;22396;51.070;4.974;2023-08-08T10:49:10;7.57;;;3.42;;
33501;SDS011;22396;51.070;4.974;2023-08-08T10:51:42;5.10;;;2.65;;
33501;SDS011;22396;51.070;4.974;2023-08-08T10:54:12;9.05;;;2.50;;
33501;SDS011;22396;51.070;4.974;2023-08-08T10:56:38;4.13;;;2.53;;
33501;SDS011;22396;51.070;4.974;2023-08-08T10:59:13;8.38;;;2.90;;
33501;SDS011;22396;51.070;4.974;2023-08-08T11:01:44;6.72;;;2.35;;
33501;SDS011;22396;51.070;4.974;2023-08-08T11:04:10;5.63;;;2.60;;
33501;SDS011;22396;51.070;4.974;2023-08-08T11:06:39;6.57;;;2.30;;
33501;SDS011;22396;51.070;4.974;2023-08-08T11:09:07;2.70;;;1.60;;
33501;SDS011;22396;51.070;4.974;2023-08-08T11:11:36;5.65;;;2.13;;
33501;SDS011;22396;51.070;4.974;2023-08-08T11:16:40;4.07;;;1.67;;
33501;SDS011;22396;51.070;4.974;2023-08-08T11:19:06;2.67;;;1.42;;
33501;SDS011;22396;51.070;4.974;2023-08-08T11:21:35;4.78;;;2.10;;
33501;SDS011;22396;51.070;4.974;2023-08-08T11:24:02;4.55;;;1.73;;
33501;SDS011;22396;51.070;4.974;2023-08-08T11:26:27;4.40;;;1.88;;
33501;SDS011;22396;51.070;4.974;2023-08-08T11:28:56;7.10;;;2.20;;
33501;SDS011;22396;51.070;4.974;2023-08-08T11:31:22;4.57;;;1.70;;
33501;SDS011;22396;51.070;4.974;2023-08-08T11:33:48;4.07;;;1.77;;
33501;SDS011;22396;51.070;4.974;2023-08-08T11:36:14;3.97;;;2.30;;
33501;SDS011;22396;51.070;4.974;2023-08-08T11:38:40;2.70;;;1.63;;
33501;SDS011;22396;51.070;4.974;2023-08-08T11:41:06;4.47;;;2.00;;
33501;SDS011;22396;51.070;4.974;2023-08-08T11:43:31;4.70;;;2.03;;
33501;SDS011;22396;51.070;4.974;2023-08-08T11:45:59;7.35;;;2.10;;
33501;SDS011;22396;51.070;4.974;2023-08-08T11:48:24;3.15;;;1.23;;
33501;SDS011;22396;51.070;4.974;2023-08-08T11:50:52;6.75;;;1.35;;
33501;SDS011;22396;51.070;4.974;2023-08-08T11:53:18;3.08;;;1.85;;
33501;SDS011;22396;51.070;4.974;2023-08-08T11:55:44;5.50;;;1.60;;
33501;SDS011;22396;51.070;4.974;2023-08-08T11:58:12;4.32;;;2.30;;
33501;SDS011;22396;51.070;4.974;2023-08-08T12:00:37;3.03;;;1.80;;
33501;SDS011;22396;51.070;4.974;2023-08-08T12:03:03;5.45;;;2.70;;
33501;SDS011;22396;51.070;4.974;2023-08-08T12:05:29;14.27;;;2.10;;
33501;SDS011;22396;51.070;4.974;2023-08-08T12:07:55;6.50;;;2.20;;
33501;SDS011;22396;51.070;4.974;2023-08-08T12:10:23;8.50;;;2.03;;
33501;SDS011;22396;51.070;4.974;2023-08-08T12:12:53;3.92;;;1.67;;
33501;SDS011;22396;51.070;4.974;2023-08-08T12:15:19;4.47;;;1.33;;
33501;SDS011;22396;51.070;4.974;2023-08-08T12:17:45;4.30;;;1.60;;
33501;SDS011;22396;51.070;4.974;2023-08-08T12:20:11;3.53;;;1.45;;
33501;SDS011;22396;51.070;4.974;2023-08-08T12:22:36;2.90;;;1.48;;
33501;SDS011;22396;51.070;4.974;2023-08-08T12:25:02;2.70;;;1.70;;
33501;SDS011;22396;51.070;4.974;2023-08-08T12:27:28;3.95;;;1.40;;
33501;SDS011;22396;51.070;4.974;2023-08-08T12:29:54;5.72;;;1.90;;
33501;SDS011;22396;51.070;4.974;2023-08-08T12:32:19;2.65;;;1.40;;
33501;SDS011;22396;51.070;4.974;2023-08-08T12:34:45;4.95;;;1.90;;
33501;SDS011;22396;51.070;4.974;2023-08-08T12:37:10;2.72;;;1.60;;
33501;SDS011;22396;51.070;4.974;2023-08-08T12:39:36;6.07;;;1.85;;
33501;SDS011;22396;51.070;4.974;2023-08-08T12:42:01;2.25;;;1.50;;
33501;SDS011;22396;51.070;4.974;2023-08-08T12:44:29;2.17;;;1.52;;
33501;SDS011;22396;51.070;4.974;2023-08-08T12:46:54;4.60;;;1.90;;
33501;SDS011;22396;51.070;4.974;2023-08-08T12:49:19;2.65;;;1.40;;
33501;SDS011;22396;51.070;4.974;2023-08-08T12:51:45;7.80;;;1.70;;
33501;SDS011;22396;51.070;4.974;2023-08-08T12:54:10;4.45;;;1.50;;
33501;SDS011;22396;51.070;4.974;2023-08-08T12:56:36;5.80;;;1.70;;
33501;SDS011;22396;51.070;4.974;2023-08-08T12:59:04;4.95;;;2.05;;
33501;SDS011;22396;51.070;4.974;2023-08-08T13:01:30;3.70;;;1.52;;
33501;SDS011;22396;51.070;4.974;2023-08-08T13:03:55;2.17;;;1.92;;
33501;SDS011;22396;51.070;4.974;2023-08-08T13:06:21;6.45;;;2.15;;
33501;SDS011;22396;51.070;4.974;2023-08-08T13:08:46;7.63;;;2.25;;
33501;SDS011;22396;51.070;4.974;2023-08-08T13:11:11;2.70;;;1.90;;
33501;SDS011;22396;51.070;4.974;2023-08-08T13:13:37;5.80;;;1.70;;
33501;SDS011;22396;51.070;4.974;2023-08-08T13:16:05;2.10;;;1.25;;
33501;SDS011;22396;51.070;4.974;2023-08-08T13:18:30;2.20;;;1.45;;
33501;SDS011;22396;51.070;4.974;2023-08-08T13:20:56;3.13;;;1.27;;
33501;SDS011;22396;51.070;4.974;2023-08-08T13:23:23;2.55;;;1.50;;
33501;SDS011;22396;51.070;4.974;2023-08-08T13:25:50;4.53;;;1.30;;
33501;SDS011;22396;51.070;4.974;2023-08-08T13:28:15;3.45;;;1.30;;
33501;SDS011;22396;51.070;4.974;2023-08-08T13:30:41;1.30;;;1.08;;
33501;SDS011;22396;51.070;4.974;2023-08-08T13:33:08;2.15;;;1.50;;
33501;SDS011;22396;51.070;4.974;2023-08-08T13:35:33;2.83;;;1.40;;
33501;SDS011;22396;51.070;4.974;2023-08-08T13:37:59;3.55;;;0.93;;
33501;SDS011;22396;51.070;4.974;2023-08-08T13:40:24;1.55;;;1.05;;
33501;SDS011;22396;51.070;4.974;2023-08-08T13:42:50;7.50;;;1.42;;
33501;SDS011;22396;51.070;4.974;2023-08-08T13:45:15;2.58;;;1.30;;
33501;SDS011;22396;51.070;4.974;2023-08-08T13:47:41;4.20;;;1.15;;
33501;SDS011;22396;51.070;4.974;2023-08-08T13:50:08;3.17;;;1.20;;
33501;SDS011;22396;51.070;4.974;2023-08-08T13:52:34;2.05;;;0.80;;
33501;SDS011;22396;51.070;4.974;2023-08-08T13:54:59;1.42;;;0.57;;
33501;SDS011;22396;51.070;4.974;2023-08-08T13:57:25;5.10;;;1.13;;
33501;SDS011;22396;51.070;4.974;2023-08-08T13:59:50;1.58;;;0.98;;
33501;SDS011;22396;51.070;4.974;2023-08-08T14:02:15;0.38;;;0.38;;
33501;SDS011;22396;51.070;4.974;2023-08-08T14:04:43;1.73;;;0.70;;
33501;SDS011;22396;51.070;4.974;2023-08-08T14:07:08;1.58;;;1.10;;
33501;SDS011;22396;51.070;4.974;2023-08-08T14:09:34;1.10;;;0.73;;
33501;SDS011;22396;51.070;4.974;2023-08-08T14:12:01;1.63;;;0.80;;
33501;SDS011;22396;51.070;4.974;2023-08-08T14:14:27;3.22;;;0.80;;
33501;SDS011;22396;51.070;4.974;2023-08-08T14:16:55;2.58;;;0.90;;
33501;SDS011;22396;51.070;4.974;2023-08-08T14:19:20;4.97;;;0.68;;
33501;SDS011;22396;51.070;4.974;2023-08-08T14:21:45;1.98;;;0.70;;
33501;SDS011;22396;51.070;4.974;2023-08-08T14:24:13;1.80;;;1.20;;
33501;SDS011;22396;51.070;4.974;2023-08-08T14:26:39;1.77;;;0.80;;
33501;SDS011;22396;51.070;4.974;2023-08-08T14:29:04;0.60;;;0.50;;
33501;SDS011;22396;51.070;4.974;2023-08-08T14:31:29;1.70;;;0.77;;
33501;SDS011;22396;51.070;4.974;2023-08-08T14:33:55;1.25;;;0.60;;
33501;SDS011;22396;51.070;4.974;2023-08-08T14:36:20;1.27;;;0.70;;
33501;SDS011;22396;51.070;4.974;2023-08-08T14:38:45;1.25;;;0.73;;
33501;SDS011;22396;51.070;4.974;2023-08-08T14:41:10;5.35;;;0.90;;
33501;SDS011;22396;51.070;4.974;2023-08-08T14:43:36;4.20;;;1.20;;
33501;SDS011;22396;51.070;4.974;2023-08-08T14:46:01;1.85;;;0.90;;
33501;SDS011;22396;51.070;4.974;2023-08-08T14:48:26;2.85;;;0.90;;